Dunlevy, PA

9:42 PM EDT on September 17, 2014 (GMT -0400)
Morgantown Municipal-Hart | Change Station
CLOSE
Current Station
Airport
Location: Morgantown,
Elevation: 1247 ft
Nearby Weather Stations

Elev 1247 ft 39.64 °N, 79.92 °W | Updated 49 minutes ago

Clear
Clear
62 °F
Feels Like 62 °F
N
0
Wind Variable Wind from North

Today
High -- | Low -- °F
--% Chance of Precip.
Yesterday
High -- | Low -- °F
Precip. -- in
7:02 AM 7:24 PM
Waning Crescent, 31% visible
Pressure 29.99 in
Visibility 10.0 miles
Clouds Scattered Clouds 5000 ft
Dew Point 52 °F
Humidity 70%
Rainfall 0.00 in
Snow Depth Not available.
UV 0 out of 12
Pollen 3.60 out of 12
Ozone Good
PM2.5 Moderate
Flu Activity Not available.
METAR KMGW 180053Z 00000KT 10SM SCT050 17/11 A2999 RMK AO2 SLP154 T01670111

More Conditions Fewer Conditions

Pressure 29.99 in
Visibility 10.0 miles
Clouds Scattered Clouds 5000 ft
Dew Point 52 °F
Humidity 70%
Rainfall 0.00 in
Snow Depth Not available.
UV 0 out of 12
Pollen 3.60 out of 12
Ozone Good
PM2.5 Moderate
Flu Activity Not available.
METAR KMGW 180053Z 00000KT 10SM SCT050 17/11 A2999 RMK AO2 SLP154 T01670111

More Conditions Fewer Conditions

10-Day Weather Forecast

Almanac

Astronomy

Sep. 17, 2014 Rise Set
Actual Time 7:02 AM EDT 7:24 PM EDT
Civil Twilight 6:35 AM EDT 7:52 PM EDT
Nautical Twilight 6:03 AM EDT 8:23 PM EDT
Astronomical Twilight 5:30 AM EDT 8:56 PM EDT
Moon 1:00 AM EDT (9/17) 3:33 PM EDT (9/17)
Length of Visible Light 13h 16m
Length of Day
12h 22m
Tomorrow will be 2m 37s shorter.
Waning Crescent, 31% of the Moon is Illuminated
Today
Waning Crescent
Sep 24
New
Oct 1
First Quarter
Oct 8
Full
Oct 15
Last Quarter

Today's Extremes

State Highs State Lows

Community

WunderPhotos

Upload Photos

1,754,261 photos uploaded!

Nearby

Air Quality

  Air Quality AQ Index Pollutant
Yesterday Moderate
PM2.5
Yesterday Good
OZONE
Current Moderate
PM2.5
Current Good
OZONE
Wednesday Good
PM2.5
Thursday Good
PM2.5
Friday Moderate
PM2.5

Snow Depth

Station Depth Elevation
No new snow has been reported.

Earthquake Activity

City Distance Mag. Time & Date
No recent earthquake activity has been reported nearby.
Minimum magnitude displayed is 2.5.

Coastal Water Temperatures

Place Temperature
No Stations Reporting

Nearby Weather Stations